Time;durP1;ratioP1;P1;durP2;ratioP2;P2;SDS_P1;SDS_P2;PMS_P1;PMS_P2;Temp;Humidity;BMP_temperature;BMP_pressure;BME280_temperature;BME280_humidity;BME280_pressure;Samples;Min_cycle;Max_cycle;Signal;HPM_P1;HPM_P2
2023/03/02 00:01:23;;;;;;;7.80;2.30;;;;;;;;;;5062117;27;92344;-76
2023/03/02 00:03:49;;;;;;;7.68;2.45;;;;;;;;;;5043466;27;95068;-75
2023/03/02 00:06:16;;;;;;;5.93;2.50;;;;;;;;;;5083693;27;94564;-75
2023/03/02 00:08:43;;;;;;;6.30;2.45;;;;;;;;;;5081830;27;92621;-75
2023/03/02 00:11:10;;;;;;;9.65;2.30;;;;;;;;;;5080186;27;92623;-76
2023/03/02 00:13:37;;;;;;;5.47;2.17;;;;;;;;;;5080547;27;92199;-75
2023/03/02 00:16:04;;;;;;;6.53;2.08;;;;;;;;;;5079581;27;92659;-76
2023/03/02 00:18:30;;;;;;;6.25;2.20;;;;;;;;;;5051865;27;93603;-76
2023/03/02 00:20:57;;;;;;;5.80;2.30;;;;;;;;;;5062074;27;91728;-75
2023/03/02 00:23:23;;;;;;;8.00;2.30;;;;;;;;;;5080321;27;92287;-76
2023/03/02 00:25:50;;;;;;;6.50;2.30;;;;;;;;;;5079942;27;92563;-76
2023/03/02 00:28:16;;;;;;;8.55;2.45;;;;;;;;;;5079138;27;94641;-76
2023/03/02 00:30:42;;;;;;;7.88;2.50;;;;;;;;;;5080976;27;92951;-77
2023/03/02 00:33:09;;;;;;;9.02;2.40;;;;;;;;;;5079203;27;93579;-75
2023/03/02 00:35:36;;;;;;;7.75;2.58;;;;;;;;;;5079035;27;93467;-77
2023/03/02 00:38:03;;;;;;;14.20;3.40;;;;;;;;;;5060728;27;93344;-76
2023/03/02 00:40:29;;;;;;;16.23;5.70;;;;;;;;;;5057786;27;92330;-77
2023/03/02 00:42:56;;;;;;;16.52;6.55;;;;;;;;;;5080078;27;93825;-77
2023/03/02 00:45:22;;;;;;;20.40;6.50;;;;;;;;;;5061752;27;94628;-76
2023/03/02 00:47:49;;;;;;;15.73;7.55;;;;;;;;;;5060549;27;92403;-76
2023/03/02 00:50:15;;;;;;;16.50;8.07;;;;;;;;;;5064862;27;92516;-76
2023/03/02 00:52:42;;;;;;;17.95;8.70;;;;;;;;;;5042948;27;94560;-76
2023/03/02 00:55:08;;;;;;;16.58;8.32;;;;;;;;;;5061581;27;97484;-75
2023/03/02 00:57:35;;;;;;;15.95;8.80;;;;;;;;;;5091733;27;93108;-76
2023/03/02 01:00:03;;;;;;;17.27;9.27;;;;;;;;;;5045557;27;92393;-75
2023/03/02 01:02:42;;;;;;;16.40;8.90;;;;;;;;;;5062700;27;94674;-75
2023/03/02 01:05:12;;;;;;;16.13;8.60;;;;;;;;;;5065359;27;95569;-76
2023/03/02 01:07:38;;;;;;;17.25;9.30;;;;;;;;;;5084082;27;92097;-78
2023/03/02 01:10:05;;;;;;;15.15;9.20;;;;;;;;;;5060700;27;92638;-78
2023/03/02 01:12:31;;;;;;;16.40;8.68;;;;;;;;;;5067603;27;95184;-78
2023/03/02 01:14:58;;;;;;;14.38;8.68;;;;;;;;;;5065195;27;92468;-77
2023/03/02 01:17:25;;;;;;;16.20;9.35;;;;;;;;;;5079993;27;95098;-77
2023/03/02 01:19:51;;;;;;;17.15;9.43;;;;;;;;;;5083574;27;94768;-77
2023/03/02 01:22:18;;;;;;;14.70;9.10;;;;;;;;;;5083988;27;92794;-76
2023/03/02 01:24:44;;;;;;;17.15;9.05;;;;;;;;;;5082751;27;93141;-77
2023/03/02 01:27:11;;;;;;;15.88;9.10;;;;;;;;;;5083582;27;92414;-77
2023/03/02 01:29:37;;;;;;;15.02;9.00;;;;;;;;;;5083732;27;92440;-76
2023/03/02 01:32:04;;;;;;;16.50;9.45;;;;;;;;;;5084341;27;92713;-77
2023/03/02 01:34:31;;;;;;;16.90;9.70;;;;;;;;;;5067609;27;91825;-80
2023/03/02 01:36:57;;;;;;;15.80;9.70;;;;;;;;;;5083404;27;92947;-77
2023/03/02 01:39:24;;;;;;;16.77;9.68;;;;;;;;;;5083562;27;92092;-76
2023/03/02 01:41:51;;;;;;;15.95;9.05;;;;;;;;;;5063817;27;94772;-76
2023/03/02 01:44:36;;;;;;;15.65;8.85;;;;;;;;;;5064623;27;95044;-78
2023/03/02 01:47:04;;;;;;;16.88;9.80;;;;;;;;;;5083026;27;92213;-77
2023/03/02 01:49:33;;;;;;;15.90;9.43;;;;;;;;;;5064400;27;93281;-76
2023/03/02 01:52:00;;;;;;;18.80;9.60;;;;;;;;;;5064378;27;95678;-77
2023/03/02 01:54:26;;;;;;;16.88;9.02;;;;;;;;;;5064260;27;92498;-78
2023/03/02 01:56:58;;;;;;;16.08;9.20;;;;;;;;;;5067886;27;94738;-77
2023/03/02 01:59:26;;;;;;;17.15;9.35;;;;;;;;;;5065528;27;91332;-77
2023/03/02 02:01:55;;;;;;;15.30;9.30;;;;;;;;;;5065122;27;92357;-78
2023/03/02 02:04:22;;;;;;;16.33;9.45;;;;;;;;;;5082694;27;93137;-78
2023/03/02 02:07:02;;;;;;;16.95;9.23;;;;;;;;;;5063114;27;95755;-79
2023/03/02 02:09:28;;;;;;;;;;;;;;;;;;5068227;27;97093;-78
2023/03/02 02:11:55;;;;;;;16.58;9.13;;;;;;;;;;5083374;27;117452;-78
2023/03/02 02:14:22;;;;;;;16.65;9.85;;;;;;;;;;5063534;27;92627;-79
2023/03/02 02:16:49;;;;;;;17.48;9.73;;;;;;;;;;5067822;27;92483;-78
2023/03/02 02:19:34;;;;;;;18.05;10.18;;;;;;;;;;5064089;27;92667;-78
2023/03/02 02:22:01;;;;;;;17.00;9.90;;;;;;;;;;5075935;27;92228;-77
2023/03/02 02:24:36;;;;;;;17.92;9.75;;;;;;;;;;5064244;27;92089;-75
2023/03/02 02:27:03;;;;;;;17.60;9.52;;;;;;;;;;5083209;27;92370;-78
2023/03/02 02:29:31;;;;;;;18.55;10.05;;;;;;;;;;5063991;27;95069;-77
2023/03/02 02:31:58;;;;;;;17.77;9.50;;;;;;;;;;5068030;27;96298;-77
2023/03/02 02:34:31;;;;;;;15.68;9.32;;;;;;;;;;5082308;27;92045;-78
2023/03/02 02:37:02;;;;;;;17.30;9.48;;;;;;;;;;5037468;27;92591;-77
2023/03/02 02:39:33;;;;;;;15.85;9.05;;;;;;;;;;5067198;27;95165;-76
2023/03/02 02:42:02;;;;;;;16.95;9.90;;;;;;;;;;5064298;27;92534;-77
2023/03/02 02:44:29;;;;;;;16.80;9.60;;;;;;;;;;5063357;27;95470;-77
2023/03/02 02:46:55;;;;;;;17.35;9.63;;;;;;;;;;5063989;27;92005;-77
2023/03/02 02:49:30;;;;;;;17.50;9.55;;;;;;;;;;5075607;27;92592;-77
2023/03/02 02:51:57;;;;;;;15.73;9.20;;;;;;;;;;5080093;27;92674;-77
2023/03/02 02:54:24;;;;;;;19.80;9.32;;;;;;;;;;5063260;27;92127;-76
2023/03/02 02:56:51;;;;;;;17.30;9.25;;;;;;;;;;5044616;27;94686;-77
2023/03/02 02:59:23;;;;;;;16.73;9.40;;;;;;;;;;5046629;27;94958;-78
2023/03/02 03:01:50;;;;;;;16.75;9.35;;;;;;;;;;5085357;27;92341;-76
2023/03/02 03:04:18;;;;;;;16.95;9.25;;;;;;;;;;5056642;27;92748;-76
2023/03/02 03:07:04;;;;;;;16.77;9.55;;;;;;;;;;5081470;27;92330;-78
2023/03/02 03:09:32;;;;;;;16.83;9.68;;;;;;;;;;5065826;27;94309;-77
2023/03/02 03:11:59;;;;;;;16.73;9.15;;;;;;;;;;5062907;27;94791;-78
2023/03/02 03:14:27;;;;;;;17.33;9.20;;;;;;;;;;5082009;27;91561;-77
2023/03/02 03:16:54;;;;;;;24.27;9.73;;;;;;;;;;5061065;27;93906;-77
2023/03/02 03:19:21;;;;;;;18.10;9.68;;;;;;;;;;5081735;27;92689;-77
2023/03/02 03:21:50;;;;;;;18.58;9.55;;;;;;;;;;5061889;27;94753;-78
2023/03/02 03:24:17;;;;;;;17.23;9.23;;;;;;;;;;5066404;27;96356;-77
2023/03/02 03:26:45;;;;;;;18.30;10.15;;;;;;;;;;5062522;27;92629;-77
2023/03/02 03:29:16;;;;;;;18.10;10.32;;;;;;;;;;5062313;27;94701;-77
2023/03/02 03:31:43;;;;;;;19.58;9.50;;;;;;;;;;5069130;27;94815;-76
2023/03/02 03:34:11;;;;;;;;;;;;;;;;;;5063403;27;92450;-77
2023/03/02 03:36:37;;;;;;;16.77;9.15;;;;;;;;;;5064255;27;98692;-76
2023/03/02 03:39:05;;;;;;;16.58;9.40;;;;;;;;;;5063403;27;94046;-76
2023/03/02 03:41:32;;;;;;;16.60;9.38;;;;;;;;;;5063221;27;92446;-76
2023/03/02 03:43:59;;;;;;;16.42;8.75;;;;;;;;;;5081297;27;92415;-76
2023/03/02 03:46:28;;;;;;;17.33;9.80;;;;;;;;;;5063506;27;95404;-77
2023/03/02 03:48:55;;;;;;;16.08;9.18;;;;;;;;;;5062618;27;97030;-78
2023/03/02 03:51:22;;;;;;;16.80;9.13;;;;;;;;;;5062880;27;92788;-77
2023/03/02 03:53:58;;;;;;;16.20;9.10;;;;;;;;;;5046062;27;92592;-79
2023/03/02 03:56:29;;;;;;;15.90;8.68;;;;;;;;;;5062346;27;92455;-78
2023/03/02 03:59:15;;;;;;;15.63;9.15;;;;;;;;;;5062126;27;93059;-78
2023/03/02 04:01:51;;;;;;;14.45;8.48;;;;;;;;;;5063320;27;92705;-78
2023/03/02 04:04:24;;;;;;;14.95;8.60;;;;;;;;;;5063001;27;92615;-79
2023/03/02 04:06:50;;;;;;;15.18;8.13;;;;;;;;;;5062129;27;99767;-79
2023/03/02 04:09:20;;;;;;;15.55;8.98;;;;;;;;;;5065682;27;92562;-78
2023/03/02 04:11:48;;;;;;;14.98;8.30;;;;;;;;;;5061094;27;95097;-78
2023/03/02 04:14:15;;;;;;;15.80;8.80;;;;;;;;;;5061987;27;92277;-79
2023/03/02 04:16:42;;;;;;;15.85;8.57;;;;;;;;;;5062512;27;95944;-78
2023/03/02 04:19:09;;;;;;;15.05;8.57;;;;;;;;;;5062180;27;95433;-78
2023/03/02 04:21:40;;;;;;;16.05;8.93;;;;;;;;;;5080859;27;92184;-78
2023/03/02 04:24:07;;;;;;;14.35;8.23;;;;;;;;;;5062719;27;95244;-76
2023/03/02 04:26:35;;;;;;;15.10;9.10;;;;;;;;;;5044783;27;94494;-76
2023/03/02 04:29:02;;;;;;;15.30;8.93;;;;;;;;;;5065561;27;92168;-78
2023/03/02 04:31:30;;;;;;;14.57;8.65;;;;;;;;;;5066013;27;94070;-77
2023/03/02 04:33:58;;;;;;;15.80;8.70;;;;;;;;;;5045984;27;92989;-77
2023/03/02 04:36:25;;;;;;;15.10;8.50;;;;;;;;;;5059894;27;95218;-77
2023/03/02 04:38:52;;;;;;;13.82;7.82;;;;;;;;;;5061691;27;94279;-78
2023/03/02 04:41:18;;;;;;;15.57;8.35;;;;;;;;;;5077745;27;92262;-78
2023/03/02 04:43:45;;;;;;;14.90;8.40;;;;;;;;;;5062060;27;94721;-76
2023/03/02 04:46:13;;;;;;;14.60;8.20;;;;;;;;;;5044641;27;95851;-77
2023/03/02 04:48:40;;;;;;;15.68;8.15;;;;;;;;;;5079576;27;92475;-77
2023/03/02 04:51:08;;;;;;;15.27;8.30;;;;;;;;;;5064685;27;95517;-77
2023/03/02 04:53:35;;;;;;;14.02;7.60;;;;;;;;;;5062418;27;91319;-77
2023/03/02 04:56:01;;;;;;;13.48;8.00;;;;;;;;;;5080801;27;92437;-77
2023/03/02 04:58:28;;;;;;;14.13;8.00;;;;;;;;;;5079671;27;93054;-77
2023/03/02 05:01:00;;;;;;;12.25;7.05;;;;;;;;;;5078743;27;94717;-77
2023/03/02 05:03:27;;;;;;;14.32;7.57;;;;;;;;;;5080603;27;94841;-78
2023/03/02 05:05:53;;;;;;;15.48;7.68;;;;;;;;;;5062084;27;93056;-77
2023/03/02 05:08:20;;;;;;;15.30;7.97;;;;;;;;;;5079897;27;92140;-77
2023/03/02 05:10:46;;;;;;;14.77;7.13;;;;;;;;;;5078813;27;97647;-77
2023/03/02 05:13:13;;;;;;;13.55;7.57;;;;;;;;;;5083491;27;93122;-78
2023/03/02 05:15:39;;;;;;;12.93;7.03;;;;;;;;;;5061881;27;92633;-79
2023/03/02 05:18:07;;;;;;;13.95;7.20;;;;;;;;;;5061883;27;93977;-78
2023/03/02 05:20:33;;;;;;;;;;;;;;;;;;5060874;27;92191;-78
2023/03/02 05:23:01;;;;;;;13.85;6.85;;;;;;;;;;5062987;27;94818;-78
2023/03/02 05:25:27;;;;;;;;;;;;;;;;;;5076319;27;95499;-78
2023/03/02 05:27:54;;;;;;;13.65;7.13;;;;;;;;;;5081170;27;101253;-77
2023/03/02 05:30:21;;;;;;;13.77;7.10;;;;;;;;;;5084012;27;92555;-78
2023/03/02 05:32:48;;;;;;;14.27;7.35;;;;;;;;;;5079761;27;97711;-78
2023/03/02 05:35:15;;;;;;;13.70;7.10;;;;;;;;;;5082983;27;92016;-78
2023/03/02 05:37:43;;;;;;;12.75;7.03;;;;;;;;;;5061235;27;95709;-78
2023/03/02 05:40:15;;;;;;;12.82;6.97;;;;;;;;;;5079953;27;91997;-78
2023/03/02 05:42:42;;;;;;;11.75;6.50;;;;;;;;;;5061332;27;93701;-77
2023/03/02 05:45:12;;;;;;;12.90;7.18;;;;;;;;;;5080317;27;92780;-77
2023/03/02 05:47:38;;;;;;;13.88;7.25;;;;;;;;;;5080100;27;92407;-77
2023/03/02 05:50:05;;;;;;;13.82;7.35;;;;;;;;;;5080621;27;95229;-77
2023/03/02 05:52:34;;;;;;;13.75;7.30;;;;;;;;;;5063789;27;94991;-77
2023/03/02 05:55:00;;;;;;;18.23;7.60;;;;;;;;;;5083462;27;92279;-76
2023/03/02 05:57:27;;;;;;;17.65;7.53;;;;;;;;;;5068799;27;93744;-76
2023/03/02 05:59:53;;;;;;;15.55;7.30;;;;;;;;;;5083428;27;92477;-76
2023/03/02 06:02:19;;;;;;;15.48;6.85;;;;;;;;;;5083400;27;92616;-76
2023/03/02 06:04:46;;;;;;;15.68;7.07;;;;;;;;;;5081585;27;92659;-76
2023/03/02 06:07:12;;;;;;;13.95;7.25;;;;;;;;;;5074527;27;93117;-76
2023/03/02 06:09:39;;;;;;;16.70;7.13;;;;;;;;;;5083182;27;93035;-76
2023/03/02 06:12:06;;;;;;;11.93;6.07;;;;;;;;;;5082680;27;93443;-76
2023/03/02 06:14:33;;;;;;;14.48;7.28;;;;;;;;;;5080772;27;95305;-76
2023/03/02 06:17:00;;;;;;;13.48;7.53;;;;;;;;;;5085386;27;94892;-76
2023/03/02 06:19:26;;;;;;;15.77;7.63;;;;;;;;;;5083084;27;92228;-74
2023/03/02 06:21:53;;;;;;;15.90;7.30;;;;;;;;;;5076243;27;94304;-75
2023/03/02 06:24:19;;;;;;;14.63;7.32;;;;;;;;;;5082506;27;92998;-76
2023/03/02 06:26:46;;;;;;;14.93;7.47;;;;;;;;;;5082120;27;92357;-76
2023/03/02 06:29:12;;;;;;;13.55;7.35;;;;;;;;;;5064034;27;92599;-75
2023/03/02 06:31:39;;;;;;;14.65;7.63;;;;;;;;;;5068275;27;92301;-76
2023/03/02 06:34:05;;;;;;;14.35;7.03;;;;;;;;;;5080745;27;92707;-78
2023/03/02 06:36:32;;;;;;;13.65;7.13;;;;;;;;;;5042675;27;94765;-77
2023/03/02 06:38:59;;;;;;;14.88;7.35;;;;;;;;;;5083376;27;95124;-78
2023/03/02 06:41:25;;;;;;;15.82;7.93;;;;;;;;;;5082275;27;94900;-76
2023/03/02 06:43:52;;;;;;;14.07;7.57;;;;;;;;;;5063753;27;92700;-77
2023/03/02 06:46:18;;;;;;;15.20;8.13;;;;;;;;;;5082183;27;92312;-77
2023/03/02 06:48:45;;;;;;;14.85;7.40;;;;;;;;;;5081071;27;92761;-76
2023/03/02 06:51:11;;;;;;;15.63;7.55;;;;;;;;;;5081523;27;93713;-76
2023/03/02 06:53:38;;;;;;;17.33;7.65;;;;;;;;;;5081975;27;92472;-77
2023/03/02 06:56:04;;;;;;;14.82;7.90;;;;;;;;;;5082812;27;93037;-77
2023/03/02 06:58:31;;;;;;;17.20;8.13;;;;;;;;;;5062303;27;92459;-76
2023/03/02 07:00:57;;;;;;;14.15;7.90;;;;;;;;;;5084976;27;92583;-76
2023/03/02 07:03:24;;;;;;;14.80;8.02;;;;;;;;;;5071598;27;95624;-76
2023/03/02 07:05:51;;;;;;;15.00;7.50;;;;;;;;;;5082080;27;92508;-75
2023/03/02 07:08:17;;;;;;;14.15;7.28;;;;;;;;;;5082096;27;92702;-75
2023/03/02 07:10:44;;;;;;;14.23;7.38;;;;;;;;;;5080826;27;92625;-76
2023/03/02 07:13:10;;;;;;;14.15;7.63;;;;;;;;;;5063112;27;93292;-77
2023/03/02 07:15:39;;;;;;;15.63;8.15;;;;;;;;;;5063073;27;93198;-76
2023/03/02 07:18:06;;;;;;;14.55;7.95;;;;;;;;;;5072599;27;92889;-76
2023/03/02 07:20:33;;;;;;;15.73;8.13;;;;;;;;;;5080845;27;91707;-75
2023/03/02 07:22:59;;;;;;;16.02;7.75;;;;;;;;;;5084396;27;92325;-78
2023/03/02 07:25:26;;;;;;;18.08;7.82;;;;;;;;;;5062361;27;92441;-77
2023/03/02 07:27:52;;;;;;;15.95;7.90;;;;;;;;;;5079261;27;95651;-76
2023/03/02 07:30:20;;;;;;;14.55;7.85;;;;;;;;;;5084414;27;93276;-77
2023/03/02 07:32:47;;;;;;;14.15;7.35;;;;;;;;;;5081034;27;93263;-76
2023/03/02 07:35:13;;;;;;;14.00;6.95;;;;;;;;;;5046233;27;92857;-77
2023/03/02 07:37:40;;;;;;;15.75;6.80;;;;;;;;;;5080819;27;92730;-77
2023/03/02 07:40:07;;;;;;;13.73;6.93;;;;;;;;;;5081221;27;92059;-78
2023/03/02 07:42:33;;;;;;;12.80;6.43;;;;;;;;;;5080820;27;92167;-76
2023/03/02 07:45:03;;;;;;;12.40;6.18;;;;;;;;;;5066326;27;91424;-78
2023/03/02 07:47:29;;;;;;;11.27;6.18;;;;;;;;;;5080538;27;92166;-78
2023/03/02 07:49:56;;;;;;;16.95;5.50;;;;;;;;;;5080931;27;92382;-78
2023/03/02 07:52:23;;;;;;;12.38;5.13;;;;;;;;;;5078892;27;94473;-79
2023/03/02 07:54:51;;;;;;;11.35;5.20;;;;;;;;;;5081351;27;94678;-78
2023/03/02 07:57:18;;;;;;;9.50;4.70;;;;;;;;;;5061888;27;93179;-77
2023/03/02 07:59:44;;;;;;;10.98;5.00;;;;;;;;;;5080308;27;93653;-78
2023/03/02 08:02:12;;;;;;;9.50;4.32;;;;;;;;;;5062728;27;95231;-77
2023/03/02 08:04:39;;;;;;;9.15;4.53;;;;;;;;;;5080889;27;92720;-76
2023/03/02 08:07:06;;;;;;;9.05;4.20;;;;;;;;;;5082888;27;93652;-77
2023/03/02 08:09:32;;;;;;;9.07;4.18;;;;;;;;;;5080625;27;92115;-78
2023/03/02 08:11:58;;;;;;;14.98;4.20;;;;;;;;;;5080526;27;92442;-77
2023/03/02 08:14:25;;;;;;;8.73;3.70;;;;;;;;;;5069538;27;94253;-77
2023/03/02 08:16:51;;;;;;;10.23;3.78;;;;;;;;;;5078368;27;96418;-76
2023/03/02 08:19:18;;;;;;;7.00;3.40;;;;;;;;;;5080878;27;92422;-77
2023/03/02 08:21:45;;;;;;;8.13;4.05;;;;;;;;;;5058470;27;95471;-79
2023/03/02 08:24:11;;;;;;;8.90;3.70;;;;;;;;;;5045958;27;92806;-78
2023/03/02 08:26:38;;;;;;;19.85;4.00;;;;;;;;;;5062390;27;92413;-76
2023/03/02 08:29:05;;;;;;;8.02;3.53;;;;;;;;;;5058536;27;93301;-76
2023/03/02 08:31:32;;;;;;;7.32;3.55;;;;;;;;;;5058622;27;92368;-76
2023/03/02 08:33:59;;;;;;;;;;;;;;;;;;5059245;27;93589;-77
2023/03/02 08:36:25;;;;;;;7.65;3.78;;;;;;;;;;5056079;27;93828;-77
2023/03/02 08:38:52;;;;;;;7.93;3.50;;;;;;;;;;5058046;27;92095;-77
2023/03/02 08:41:20;;;;;;;7.57;3.40;;;;;;;;;;5052817;27;94858;-77
2023/03/02 08:43:47;;;;;;;8.43;3.58;;;;;;;;;;5055265;27;92785;-78
2023/03/02 08:46:14;;;;;;;8.95;3.70;;;;;;;;;;5051704;27;92301;-76
2023/03/02 08:48:41;;;;;;;7.90;3.60;;;;;;;;;;5058781;27;93235;-77
2023/03/02 08:51:12;;;;;;;8.48;3.90;;;;;;;;;;5056839;27;92522;-76
2023/03/02 08:53:39;;;;;;;6.25;3.33;;;;;;;;;;5058508;27;92587;-76
2023/03/02 08:56:25;;;;;;;6.63;3.00;;;;;;;;;;5051599;27;93625;-78
2023/03/02 08:58:51;;;;;;;;;;;;;;;;;;5056923;27;91614;-77
2023/03/02 09:01:19;;;;;;;6.53;3.13;;;;;;;;;;5059166;27;117516;-77
2023/03/02 09:03:46;;;;;;;6.85;3.60;;;;;;;;;;5057875;27;92685;-77
2023/03/02 09:06:12;;;;;;;7.75;3.55;;;;;;;;;;5055056;27;96000;-77
2023/03/02 09:08:39;;;;;;;6.50;3.42;;;;;;;;;;5059295;27;95316;-76
2023/03/02 09:11:05;;;;;;;6.40;3.28;;;;;;;;;;5061820;27;93659;-77
2023/03/02 09:13:32;;;;;;;7.38;3.58;;;;;;;;;;5059384;27;92544;-77
2023/03/02 09:15:59;;;;;;;5.68;3.10;;;;;;;;;;5053404;27;95559;-77
2023/03/02 09:18:27;;;;;;;6.90;3.25;;;;;;;;;;5058264;27;92382;-76
2023/03/02 09:20:55;;;;;;;6.63;3.20;;;;;;;;;;5067042;27;92710;-76
2023/03/02 09:23:25;;;;;;;5.75;2.85;;;;;;;;;;5060473;27;92388;-74
2023/03/02 09:25:54;;;;;;;6.80;3.30;;;;;;;;;;5063923;27;92251;-77
2023/03/02 09:28:21;;;;;;;5.55;2.70;;;;;;;;;;5045493;27;94094;-76
2023/03/02 09:30:51;;;;;;;6.03;2.97;;;;;;;;;;5079069;27;96126;-76
2023/03/02 09:33:18;;;;;;;6.20;3.10;;;;;;;;;;5066369;27;92645;-76
2023/03/02 09:35:46;;;;;;;6.45;3.22;;;;;;;;;;5082427;27;92714;-76
2023/03/02 09:38:15;;;;;;;6.57;3.22;;;;;;;;;;5062504;27;92408;-76
2023/03/02 09:40:54;;;;;;;7.22;3.45;;;;;;;;;;5082215;27;92707;-77
2023/03/02 09:43:26;;;;;;;7.22;3.42;;;;;;;;;;5079540;27;92685;-76
2023/03/02 09:45:55;;;;;;;6.80;3.42;;;;;;;;;;5068398;27;92348;-75
2023/03/02 09:48:36;;;;;;;7.05;3.20;;;;;;;;;;5064986;27;92091;-75
2023/03/02 09:51:23;;;;;;;6.10;3.03;;;;;;;;;;5058318;27;92792;-77
2023/03/02 09:54:08;;;;;;;5.70;2.97;;;;;;;;;;5055220;27;92225;-75
2023/03/02 09:56:37;;;;;;;7.90;3.70;;;;;;;;;;5085449;27;94810;-76
2023/03/02 09:59:11;;;;;;;7.97;3.70;;;;;;;;;;5082225;27;92528;-76
2023/03/02 10:01:41;;;;;;;7.82;3.80;;;;;;;;;;5047322;27;95476;-77
2023/03/02 10:04:17;;;;;;;6.65;3.30;;;;;;;;;;5063382;27;92870;-77
2023/03/02 10:06:44;;;;;;;6.30;3.00;;;;;;;;;;5063444;27;92195;-77
2023/03/02 10:09:10;;;;;;;6.90;3.35;;;;;;;;;;5080544;27;92963;-75
2023/03/02 10:11:48;;;;;;;7.00;3.08;;;;;;;;;;5074768;27;93772;-76
2023/03/02 10:14:27;;;;;;;6.93;3.25;;;;;;;;;;5082931;27;91519;-77
2023/03/02 10:17:08;;;;;;;6.45;2.70;;;;;;;;;;5082197;27;96029;-76
2023/03/02 10:19:41;;;;;;;5.82;2.88;;;;;;;;;;5086089;27;93274;-77
2023/03/02 10:22:07;;;;;;;7.40;3.30;;;;;;;;;;5062323;27;94817;-76
2023/03/02 10:24:38;;;;;;;6.93;3.13;;;;;;;;;;5081400;27;92964;-76
2023/03/02 10:27:17;;;;;;;6.25;2.90;;;;;;;;;;5081765;27;92112;-76
2023/03/02 10:29:51;;;;;;;6.20;2.95;;;;;;;;;;5064384;27;94960;-76
2023/03/02 10:32:19;;;;;;;7.25;3.10;;;;;;;;;;5064004;27;93477;-74
2023/03/02 10:34:48;;;;;;;6.43;2.88;;;;;;;;;;5052973;27;94008;-77
2023/03/02 10:37:20;;;;;;;6.95;2.90;;;;;;;;;;5078765;27;93375;-75
2023/03/02 10:39:47;;;;;;;6.03;2.63;;;;;;;;;;5081779;27;92030;-75
2023/03/02 10:42:15;;;;;;;5.95;2.70;;;;;;;;;;5081565;27;92498;-74
2023/03/02 10:44:47;;;;;;;5.55;2.60;;;;;;;;;;5080908;27;92937;-74
2023/03/02 10:47:24;;;;;;;6.15;2.65;;;;;;;;;;5074644;27;94645;-75
2023/03/02 10:49:52;;;;;;;5.55;2.60;;;;;;;;;;5059695;27;95604;-75
2023/03/02 10:52:25;;;;;;;5.65;2.50;;;;;;;;;;5062688;27;94847;-75
2023/03/02 10:55:03;;;;;;;5.88;2.42;;;;;;;;;;5055368;27;93375;-75
2023/03/02 10:57:37;;;;;;;7.55;2.53;;;;;;;;;;5062453;27;92115;-75
2023/03/02 11:00:12;;;;;;;6.00;2.55;;;;;;;;;;5062272;27;92287;-76
2023/03/02 11:02:47;;;;;;;5.80;2.67;;;;;;;;;;5082871;27;92678;-76
2023/03/02 11:05:16;;;;;;;6.40;2.50;;;;;;;;;;5063425;27;94788;-77
2023/03/02 11:08:12;;;;;;;6.85;2.33;;;;;;;;;;5082207;27;92179;-75
2023/03/02 11:10:39;;;;;;;5.72;2.35;;;;;;;;;;5059305;27;93452;-76
2023/03/02 11:13:22;;;;;;;8.05;2.80;;;;;;;;;;5079511;27;95141;-75
2023/03/02 11:15:50;;;;;;;6.28;2.67;;;;;;;;;;5068826;27;92465;-75
2023/03/02 11:18:35;;;;;;;7.03;2.83;;;;;;;;;;5076849;27;93508;-76
2023/03/02 11:21:04;;;;;;;6.60;2.67;;;;;;;;;;5077692;27;97187;-76
2023/03/02 11:23:37;;;;;;;7.60;2.95;;;;;;;;;;5080651;27;92435;-75
2023/03/02 11:26:06;;;;;;;5.75;2.47;;;;;;;;;;5065745;27;92602;-75
2023/03/02 11:28:33;;;;;;;6.57;2.65;;;;;;;;;;5079874;27;92561;-74
2023/03/02 11:31:00;;;;;;;6.53;2.60;;;;;;;;;;5080804;27;92346;-75
2023/03/02 11:33:35;;;;;;;6.28;2.60;;;;;;;;;;5080639;27;93128;-76
2023/03/02 11:36:05;;;;;;;6.40;2.85;;;;;;;;;;5059796;27;92477;-75
2023/03/02 11:38:33;;;;;;;6.10;2.60;;;;;;;;;;5076823;27;95193;-75
2023/03/02 11:41:03;;;;;;;5.78;2.38;;;;;;;;;;5061406;27;93628;-74
2023/03/02 11:43:30;;;;;;;5.05;2.38;;;;;;;;;;5062060;27;92484;-75
2023/03/02 11:46:02;;;;;;;5.43;2.47;;;;;;;;;;5080508;27;92942;-75
2023/03/02 11:48:33;;;;;;;5.85;2.53;;;;;;;;;;5081486;27;92624;-76
2023/03/02 11:51:05;;;;;;;5.20;2.20;;;;;;;;;;5080131;27;92830;-75
2023/03/02 11:53:44;;;;;;;5.78;2.47;;;;;;;;;;5077480;27;92149;-76
2023/03/02 11:56:10;;;;;;;5.82;2.20;;;;;;;;;;5080867;27;91965;-75
2023/03/02 11:58:37;;;;;;;5.70;2.50;;;;;;;;;;5080019;27;92299;-75
2023/03/02 12:01:06;;;;;;;6.75;2.40;;;;;;;;;;5080034;27;92835;-75
2023/03/02 12:03:32;;;;;;;5.60;2.30;;;;;;;;;;5060062;27;94552;-75
2023/03/02 12:06:01;;;;;;;5.63;2.30;;;;;;;;;;5079615;27;95413;-75
2023/03/02 12:08:33;;;;;;;5.38;2.03;;;;;;;;;;5081201;27;92836;-75
2023/03/02 12:11:02;;;;;;;6.05;2.40;;;;;;;;;;5083218;27;92404;-76
2023/03/02 12:13:33;;;;;;;5.88;2.20;;;;;;;;;;5079811;27;93235;-75
2023/03/02 12:16:00;;;;;;;5.10;2.25;;;;;;;;;;5061066;27;92514;-75
2023/03/02 12:18:28;;;;;;;4.75;2.10;;;;;;;;;;5079532;27;93635;-74
2023/03/02 12:21:14;;;;;;;5.07;2.30;;;;;;;;;;5079820;27;92852;-75
2023/03/02 12:23:52;;;;;;;3.95;1.83;;;;;;;;;;5061840;27;92079;-76
2023/03/02 12:26:19;;;;;;;4.97;2.10;;;;;;;;;;5080271;27;93057;-75
2023/03/02 12:29:03;;;;;;;6.82;2.30;;;;;;;;;;5077838;27;95159;-75
2023/03/02 12:31:40;;;;;;;5.40;2.10;;;;;;;;;;5065773;27;92348;-77
2023/03/02 12:34:21;;;;;;;5.20;2.30;;;;;;;;;;5064737;27;92449;-76
2023/03/02 12:36:48;;;;;;;4.55;2.10;;;;;;;;;;5079782;27;92414;-76
2023/03/02 12:39:37;;;;;;;4.75;1.92;;;;;;;;;;5060080;27;93953;-75
2023/03/02 12:42:10;;;;;;;4.28;1.90;;;;;;;;;;5080048;27;92793;-76
2023/03/02 12:44:55;;;;;;;6.90;2.30;;;;;;;;;;5079329;27;92067;-75
2023/03/02 12:47:27;;;;;;;4.47;2.03;;;;;;;;;;5080287;27;94216;-75
2023/03/02 12:49:56;;;;;;;6.32;2.15;;;;;;;;;;5079541;27;93131;-75
2023/03/02 12:52:33;;;;;;;4.85;2.13;;;;;;;;;;5059573;27;92557;-76
2023/03/02 12:55:09;;;;;;;6.07;2.17;;;;;;;;;;5060789;27;96321;-75
2023/03/02 12:57:46;;;;;;;4.90;2.05;;;;;;;;;;5079656;27;92086;-74
2023/03/02 13:00:16;;;;;;;5.22;2.15;;;;;;;;;;5060707;27;94465;-75
2023/03/02 13:02:47;;;;;;;5.15;2.10;;;;;;;;;;5060426;27;93138;-74
2023/03/02 13:05:33;;;;;;;4.80;2.15;;;;;;;;;;5079646;27;92355;-75
2023/03/02 13:08:01;;;;;;;4.90;2.30;;;;;;;;;;5060949;27;95521;-74
2023/03/02 13:10:41;;;;;;;6.93;2.30;;;;;;;;;;5079815;27;92709;-75
2023/03/02 13:13:15;;;;;;;4.03;1.70;;;;;;;;;;5062157;27;92165;-75
2023/03/02 13:15:47;;;;;;;4.70;1.83;;;;;;;;;;5079251;27;92516;-76
2023/03/02 13:18:15;;;;;;;5.57;1.85;;;;;;;;;;5082105;27;92607;-76
2023/03/02 13:20:41;;;;;;;4.80;2.15;;;;;;;;;;5075774;27;95181;-76
2023/03/02 13:23:14;;;;;;;4.72;2.20;;;;;;;;;;5057876;27;95794;-77
2023/03/02 13:25:51;;;;;;;4.45;2.15;;;;;;;;;;5079117;27;92270;-76
2023/03/02 13:28:34;;;;;;;5.13;2.00;;;;;;;;;;5060015;27;92364;-76
2023/03/02 13:31:05;;;;;;;4.90;2.17;;;;;;;;;;5059140;27;99504;-78
2023/03/02 13:33:42;;;;;;;4.80;1.80;;;;;;;;;;5078635;27;93503;-76
2023/03/02 13:36:16;;;;;;;6.57;1.98;;;;;;;;;;5077703;27;93106;-77
2023/03/02 13:38:45;;;;;;;4.72;1.80;;;;;;;;;;5060589;27;92101;-76
2023/03/02 13:41:19;;;;;;;5.40;2.10;;;;;;;;;;5082269;27;92005;-74
2023/03/02 13:43:46;;;;;;;6.40;2.10;;;;;;;;;;5060204;27;92555;-75
2023/03/02 13:46:12;;;;;;;5.80;1.60;;;;;;;;;;5058906;27;94840;-75
2023/03/02 13:48:39;;;;;;;6.65;1.77;;;;;;;;;;5078125;27;95622;-76
2023/03/02 13:51:16;;;;;;;4.57;2.17;;;;;;;;;;5075862;27;92908;-75
2023/03/02 13:53:53;;;;;;;5.85;1.75;;;;;;;;;;5060599;27;92099;-75
2023/03/02 13:56:22;;;;;;;7.85;1.75;;;;;;;;;;5079346;27;93000;-74
2023/03/02 13:58:48;;;;;;;5.57;1.73;;;;;;;;;;5060006;27;97681;-74
2023/03/02 14:01:14;;;;;;;5.40;1.70;;;;;;;;;;5079160;27;92441;-75
2023/03/02 14:03:41;;;;;;;6.35;1.90;;;;;;;;;;5062540;27;92645;-76
2023/03/02 14:06:08;;;;;;;6.38;1.67;;;;;;;;;;5078487;27;92119;-74
2023/03/02 14:08:34;;;;;;;;;;;;;;;;;;5082008;27;93084;-73
2023/03/02 14:11:01;;;;;;;6.28;1.65;;;;;;;;;;5087679;27;104964;-75
2023/03/02 14:13:32;;;;;;;6.55;1.63;;;;;;;;;;5047280;27;92251;-75
2023/03/02 14:15:58;;;;;;;4.30;1.58;;;;;;;;;;5082434;27;92668;-75
2023/03/02 14:18:27;;;;;;;4.05;1.55;;;;;;;;;;5080058;27;94299;-75
2023/03/02 14:20:54;;;;;;;5.90;1.50;;;;;;;;;;5062599;27;92342;-74
2023/03/02 14:23:20;;;;;;;4.72;1.48;;;;;;;;;;5062941;27;94983;-73
2023/03/02 14:25:48;;;;;;;5.80;1.70;;;;;;;;;;5084053;27;93680;-75
2023/03/02 14:28:21;;;;;;;7.00;1.73;;;;;;;;;;5081876;27;92919;-75
2023/03/02 14:30:49;;;;;;;4.97;1.80;;;;;;;;;;5081235;27;97629;-74
2023/03/02 14:33:16;;;;;;;7.93;1.98;;;;;;;;;;5059558;27;94927;-75
2023/03/02 14:35:43;;;;;;;4.63;1.80;;;;;;;;;;5079413;27;94474;-76
2023/03/02 14:38:10;;;;;;;5.25;1.80;;;;;;;;;;5078793;27;92851;-75
2023/03/02 14:40:36;;;;;;;;;;;;;;;;;;5081255;27;93000;-75
2023/03/02 14:43:03;;;;;;;4.75;1.85;;;;;;;;;;5063786;27;116597;-75
2023/03/02 14:45:29;;;;;;;5.55;1.75;;;;;;;;;;5062736;27;92653;-76
2023/03/02 14:47:56;;;;;;;3.75;1.70;;;;;;;;;;5083664;27;92739;-76
2023/03/02 14:50:22;;;;;;;4.68;1.88;;;;;;;;;;5079834;27;93603;-76